Time;durP1;ratioP1;P1;durP2;ratioP2;P2;SDS_P1;SDS_P2;PMS_P1;PMS_P2;Temp;Humidity;BMP_temperature;BMP_pressure;BME280_temperature;BME280_humidity;BME280_pressure;Samples;Min_cycle;Max_cycle;Signal;HPM_P1;HPM_P2
2022/05/31 00:00:37;;;;;;;34.33;20.33;;;461.40;2380.80;;;;;;5031146;28;20034;-57
2022/05/31 00:03:05;;;;;;;31.38;16.63;;;461.30;2380.80;;;;;;5031135;28;20034;-58
2022/05/31 00:05:32;;;;;;;33.88;18.40;;;461.30;2380.80;;;;;;5031209;28;20033;-56
2022/05/31 00:07:58;;;;;;;33.08;16.67;;;461.40;2380.80;;;;;;5031177;28;20021;-59
2022/05/31 00:10:24;;;;;;;30.20;18.02;;;461.20;2380.80;;;;;;5031208;28;20031;-58
2022/05/31 00:12:50;;;;;;;33.40;17.73;;;461.10;2380.80;;;;;;5031274;28;20037;-58
2022/05/31 00:15:18;;;;;;;29.48;16.80;;;461.10;2380.80;;;;;;5031001;28;20030;-56
2022/05/31 00:17:44;;;;;;;31.85;18.20;;;461.10;2380.80;;;;;;5031024;28;20111;-58
2022/05/31 00:20:13;;;;;;;34.85;18.05;;;461.20;2380.80;;;;;;5030820;28;20463;-58
2022/05/31 00:22:40;;;;;;;30.50;18.50;;;461.10;2380.80;;;;;;5030633;28;20040;-56
2022/05/31 00:25:08;;;;;;;31.83;17.83;;;461.10;2380.80;;;;;;5030397;28;20035;-58
2022/05/31 00:27:33;;;;;;;34.67;17.48;;;461.10;2380.80;;;;;;5030994;28;20041;-56
2022/05/31 00:29:59;;;;;;;31.65;18.77;;;461.10;2380.80;;;;;;5030631;28;20037;-58
2022/05/31 00:32:31;;;;;;;34.97;18.17;;;460.90;2380.80;;;;;;5030580;28;20025;-57
2022/05/31 00:35:03;;;;;;;37.97;18.58;;;461.10;2380.80;;;;;;5030352;28;20029;-58
2022/05/31 00:37:29;;;;;;;30.15;17.88;;;461.10;2380.80;;;;;;5030673;28;20064;-59
2022/05/31 00:39:54;;;;;;;31.55;17.13;;;461.00;2380.80;;;;;;5030758;28;20021;-59
2022/05/31 00:42:22;;;;;;;27.90;16.90;;;461.10;2380.80;;;;;;5030458;28;20092;-57
2022/05/31 00:44:49;;;;;;;33.38;18.00;;;461.00;2380.80;;;;;;5030572;28;20479;-57
2022/05/31 00:47:27;;;;;;;31.80;16.67;;;461.00;2380.80;;;;;;5030523;28;20036;-58
2022/05/31 00:50:08;;;;;;;30.55;17.08;;;461.10;2380.80;;;;;;5030402;28;20107;-57
2022/05/31 00:52:46;;;;;;;35.80;17.27;;;461.00;2380.80;;;;;;5030329;28;20029;-58
2022/05/31 00:55:38;;;;;;;30.05;16.75;;;460.90;2380.80;;;;;;5030254;28;20045;-57
2022/05/31 00:58:09;;;;;;;30.95;16.08;;;461.10;2380.80;;;;;;5028492;28;20039;-57
2022/05/31 01:00:37;;;;;;;26.55;16.52;;;461.00;2380.80;;;;;;5030147;28;20060;-58
2022/05/31 01:03:04;;;;;;;30.98;16.40;;;461.10;2380.80;;;;;;5030358;28;20037;-58
2022/05/31 01:05:30;;;;;;;34.78;17.30;;;461.10;2380.80;;;;;;5030458;28;20033;-57
2022/05/31 01:07:56;;;;;;;30.05;18.08;;;461.10;2380.80;;;;;;5030232;28;20028;-56
2022/05/31 01:10:23;;;;;;;35.28;16.38;;;461.00;2380.80;;;;;;5030207;28;20025;-59
2022/05/31 01:12:50;;;;;;;29.67;17.27;;;460.90;2380.80;;;;;;5030198;28;20037;-57
2022/05/31 01:15:17;;;;;;;27.60;15.88;;;461.00;2380.80;;;;;;5030064;28;20108;-57
2022/05/31 01:17:43;;;;;;;33.90;16.52;;;460.80;2380.80;;;;;;5029889;28;20506;-57
2022/05/31 01:20:16;;;;;;;33.17;18.05;;;460.80;2380.80;;;;;;5029682;28;20034;-59
2022/05/31 01:22:50;;;;;;;25.92;15.45;;;460.90;2380.80;;;;;;5029918;28;20037;-58
2022/05/31 01:25:52;;;;;;;28.05;16.45;;;460.90;2380.80;;;;;;5029624;28;20120;-59
2022/05/31 01:28:26;;;;;;;32.05;16.35;;;461.10;2380.80;;;;;;5029783;28;20076;-57
2022/05/31 01:30:58;;;;;;;27.50;15.82;;;461.00;2380.80;;;;;;5030026;28;20021;-57
2022/05/31 01:33:42;;;;;;;30.00;17.30;;;461.10;2380.80;;;;;;5030027;28;20112;-56
2022/05/31 01:36:12;;;;;;;26.58;16.08;;;461.00;2380.80;;;;;;5029550;28;20471;-57
2022/05/31 01:39:18;;;;;;;30.40;15.55;;;460.90;2380.80;;;;;;5029759;28;20064;-56
2022/05/31 01:41:59;;;;;;;31.35;16.08;;;460.90;2380.80;;;;;;5026445;28;20095;-56
2022/05/31 01:44:32;;;;;;;32.22;17.23;;;461.00;2380.80;;;;;;5029925;28;20026;-57
2022/05/31 01:47:00;;;;;;;28.33;15.32;;;461.00;2380.80;;;;;;5030016;28;20387;-58
2022/05/31 01:49:32;;;;;;;32.75;16.30;;;461.10;2380.80;;;;;;5029597;28;20037;-57
2022/05/31 01:51:58;;;;;;;25.65;14.38;;;461.00;2380.80;;;;;;5029640;28;20017;-58
2022/05/31 01:54:25;;;;;;;24.83;13.18;;;460.90;2380.80;;;;;;5029449;28;20105;-57
2022/05/31 01:56:59;;;;;;;27.52;14.18;;;461.00;2380.80;;;;;;5029625;28;20137;-57
2022/05/31 01:59:29;;;;;;;22.42;12.95;;;460.90;2380.80;;;;;;5029752;28;20022;-57
2022/05/31 02:01:56;;;;;;;22.30;14.20;;;460.80;2380.80;;;;;;5029607;28;20068;-57
2022/05/31 02:04:22;;;;;;;23.15;14.27;;;460.80;2380.80;;;;;;5029608;28;20013;-57
2022/05/31 02:07:10;;;;;;;27.63;14.50;;;436.00;2355.20;;;;;;5029341;28;20032;-58
2022/05/31 02:09:33;;;;;;;27.08;13.25;;;436.10;2355.20;;;;;;5033210;28;20053;-57
2022/05/31 02:11:59;;;;;;;27.40;15.27;;;460.80;2380.80;;;;;;5033547;28;20025;-58
2022/05/31 02:14:24;;;;;;;28.92;15.93;;;436.10;2355.20;;;;;;5033231;28;20477;-57
2022/05/31 02:16:50;;;;;;;24.67;13.55;;;436.00;2355.20;;;;;;5033343;28;20029;-58
2022/05/31 02:19:23;;;;;;;23.58;13.57;;;436.10;2355.20;;;;;;5033195;28;20422;-58
2022/05/31 02:21:50;;;;;;;28.80;15.90;;;436.10;2355.20;;;;;;5032784;28;20391;-57
2022/05/31 02:24:16;;;;;;;24.38;13.90;;;436.10;2355.20;;;;;;5032810;28;20033;-57
2022/05/31 02:26:43;;;;;;;24.98;13.52;;;460.80;2380.80;;;;;;5033047;28;20060;-59
2022/05/31 02:29:10;;;;;;;27.23;13.48;;;460.80;2380.80;;;;;;5032952;28;20017;-57
2022/05/31 02:31:37;;;;;;;24.83;13.80;;;436.10;2355.20;;;;;;5032796;28;20052;-58
2022/05/31 02:34:04;;;;;;;26.27;14.45;;;436.10;2355.20;;;;;;5033004;28;20112;-58
2022/05/31 02:36:30;;;;;;;28.08;15.07;;;436.10;2355.20;;;;;;5032902;28;20051;-58
2022/05/31 02:38:56;;;;;;;28.85;14.45;;;435.90;2355.20;;;;;;5033300;28;20030;-58
2022/05/31 02:41:22;;;;;;;26.20;15.88;;;435.90;2355.20;;;;;;5032829;28;20484;-57
2022/05/31 02:43:49;;;;;;;29.73;14.55;;;435.80;2355.20;;;;;;5032623;28;20502;-56
2022/05/31 02:46:14;;;;;;;34.35;16.38;;;435.90;2355.20;;;;;;5032943;28;20052;-57
2022/05/31 02:48:40;;;;;;;34.10;15.40;;;436.00;2355.20;;;;;;5032786;28;20025;-57
2022/05/31 02:51:06;;;;;;;27.10;14.45;;;436.10;2355.20;;;;;;5032540;28;20111;-58
2022/05/31 02:53:32;;;;;;;24.90;15.30;;;436.10;2355.20;;;;;;5032618;28;20472;-57
2022/05/31 02:55:58;;;;;;;28.50;15.63;;;436.10;2355.20;;;;;;5032384;28;20026;-59
2022/05/31 02:58:27;;;;;;;26.67;15.93;;;460.80;2380.80;;;;;;5032790;28;20032;-58
2022/05/31 03:00:53;;;;;;;27.98;15.02;;;460.80;2380.80;;;;;;5032549;28;20017;-58
2022/05/31 03:03:19;;;;;;;35.88;16.33;;;460.80;2380.80;;;;;;5032195;28;20392;-58
2022/05/31 03:05:45;;;;;;;25.80;14.45;;;460.80;2380.80;;;;;;5031968;28;20026;-57
2022/05/31 03:08:12;;;;;;;27.83;14.82;;;460.80;2380.80;;;;;;5032160;28;20029;-57
2022/05/31 03:10:44;;;;;;;30.75;15.60;;;460.80;2380.80;;;;;;5032346;28;20021;-57
2022/05/31 03:13:14;;;;;;;30.15;16.50;;;460.80;2380.80;;;;;;5032614;28;20404;-56
2022/05/31 03:15:40;;;;;;;35.92;17.67;;;460.80;2380.80;;;;;;5032217;28;20112;-57
2022/05/31 03:18:13;;;;;;;26.25;15.07;;;460.90;2380.80;;;;;;5031628;28;20105;-56
2022/05/31 03:20:48;;;;;;;29.13;14.63;;;460.80;2380.80;;;;;;5031096;28;20025;-58
2022/05/31 03:23:25;;;;;;;28.25;15.60;;;460.80;2380.80;;;;;;5032033;28;20145;-57
2022/05/31 03:25:53;;;;;;;29.42;15.65;;;460.80;2380.80;;;;;;5031732;28;20052;-58
2022/05/31 03:28:19;;;;;;;30.92;14.73;;;460.80;2380.80;;;;;;5031632;28;20488;-59
2022/05/31 03:30:45;;;;;;;27.80;16.08;;;460.80;2380.80;;;;;;5031763;28;20030;-57
2022/05/31 03:33:12;;;;;;;31.33;15.93;;;436.10;2355.20;;;;;;5032017;28;20017;-59
2022/05/31 03:35:38;;;;;;;33.85;16.20;;;460.80;2380.80;;;;;;5031410;28;20033;-58
2022/05/31 03:38:05;;;;;;;33.90;17.27;;;435.90;2355.20;;;;;;5031719;28;20472;-57
2022/05/31 03:43:15;;;;;;;30.67;15.88;;;435.80;2355.20;;;;;;5031430;28;20048;-57
2022/05/31 03:45:43;;;;;;;33.63;16.92;;;435.80;2329.60;;;;;;5031511;28;20084;-57
2022/05/31 03:48:10;;;;;;;34.38;16.80;;;435.90;2355.20;;;;;;5031295;28;20468;-57
2022/05/31 03:50:38;;;;;;;30.08;16.92;;;435.80;2355.20;;;;;;5031560;28;20029;-57
2022/05/31 03:53:05;;;;;;;35.55;17.40;;;435.80;2201.60;;;;;;5031344;28;20033;-57
2022/05/31 03:55:31;;;;;;;30.60;15.82;;;435.90;1996.80;;;;;;5031835;28;20037;-57
2022/05/31 03:57:57;;;;;;;32.92;16.92;;;435.90;2124.80;;;;;;5031357;28;20368;-57
2022/05/31 04:00:23;;;;;;;33.30;16.98;;;435.90;2355.20;;;;;;5031507;28;20472;-58
2022/05/31 04:02:49;;;;;;;31.77;16.60;;;435.80;2355.20;;;;;;5031039;28;20041;-58
2022/05/31 04:05:15;;;;;;;31.05;16.77;;;435.90;2355.20;;;;;;5031285;28;20022;-59
2022/05/31 04:07:41;;;;;;;30.13;16.65;;;435.90;2355.20;;;;;;5031195;28;20033;-58
2022/05/31 04:10:08;;;;;;;28.90;16.02;;;436.10;2355.20;;;;;;5031124;28;20041;-58
2022/05/31 04:12:34;;;;;;;31.73;14.85;;;436.10;2355.20;;;;;;5031060;28;20480;-58
2022/05/31 04:15:00;;;;;;;28.15;16.13;;;436.00;2355.20;;;;;;5031045;28;20040;-58
2022/05/31 04:17:26;;;;;;;29.23;14.93;;;435.90;2355.20;;;;;;5030922;28;20045;-58
2022/05/31 04:19:51;;;;;;;27.55;15.35;;;436.00;2355.20;;;;;;5031209;28;20044;-58
2022/05/31 04:22:17;;;;;;;26.05;13.05;;;436.00;2355.20;;;;;;5030738;28;20060;-58
2022/05/31 04:24:43;;;;;;;30.75;15.27;;;435.90;2355.20;;;;;;5030655;28;20026;-58
2022/05/31 04:27:15;;;;;;;22.25;14.40;;;435.90;2355.20;;;;;;5030566;28;20054;-58
2022/05/31 04:29:41;;;;;;;28.27;15.05;;;435.90;2355.20;;;;;;5030444;28;20033;-57
2022/05/31 04:32:07;;;;;;;27.15;14.88;;;436.00;2355.20;;;;;;5030444;28;20357;-57
2022/05/31 04:34:33;;;;;;;31.83;14.18;;;436.00;2355.20;;;;;;5031136;28;20101;-56
2022/05/31 04:36:58;;;;;;;27.00;13.30;;;436.00;2355.20;;;;;;5030452;28;20440;-58
2022/05/31 04:39:24;;;;;;;26.27;14.10;;;436.10;2355.20;;;;;;5030661;28;20030;-56
2022/05/31 04:41:50;;;;;;;25.70;15.10;;;436.00;2355.20;;;;;;5030253;28;20495;-58
2022/05/31 04:44:16;;;;;;;26.13;13.30;;;435.90;2355.20;;;;;;5030488;28;20018;-58
2022/05/31 04:46:42;;;;;;;27.08;14.85;;;435.80;2355.20;;;;;;5030538;28;20029;-58
2022/05/31 04:49:08;;;;;;;30.77;15.95;;;435.90;2355.20;;;;;;5030593;28;20045;-57
2022/05/31 04:51:34;;;;;;;30.60;16.83;;;435.80;2355.20;;;;;;5030465;28;20018;-56
2022/05/31 04:54:01;;;;;;;26.95;15.27;;;435.90;2355.20;;;;;;5030470;28;20033;-58
2022/05/31 04:56:27;;;;;;;23.08;13.57;;;435.90;2355.20;;;;;;5030079;28;20681;-58
2022/05/31 04:58:54;;;;;;;21.05;13.25;;;435.90;2355.20;;;;;;5030343;28;20475;-58
2022/05/31 05:01:22;;;;;;;27.95;14.40;;;436.00;2355.20;;;;;;5030136;28;20029;-58
2022/05/31 05:03:48;;;;;;;27.05;13.77;;;436.10;2355.20;;;;;;5030004;28;20499;-58
2022/05/31 05:06:15;;;;;;;29.73;15.25;;;460.80;2380.80;;;;;;5030288;28;20148;-59
2022/05/31 05:08:42;;;;;;;30.10;16.52;;;436.00;2355.20;;;;;;5030478;28;20029;-58
2022/05/31 05:11:13;;;;;;;27.48;14.88;;;436.10;2355.20;;;;;;5029979;28;20494;-58
2022/05/31 05:13:41;;;;;;;24.83;13.75;;;460.80;2380.80;;;;;;5029987;28;20022;-57
2022/05/31 05:16:08;;;;;;;24.65;13.23;;;460.90;2380.80;;;;;;5029881;28;20109;-58
2022/05/31 05:18:38;;;;;;;23.80;13.43;;;461.00;2380.80;;;;;;5030096;28;20025;-58
2022/05/31 05:21:07;;;;;;;28.67;14.68;;;460.90;2380.80;;;;;;5030008;28;20486;-57
2022/05/31 05:23:33;;;;;;;26.80;14.18;;;460.80;2380.80;;;;;;5030085;28;20041;-57
2022/05/31 05:25:59;;;;;;;28.75;14.30;;;460.80;2380.80;;;;;;5029909;28;20117;-59
2022/05/31 05:31:31;;;;;;;21.08;14.18;;;460.90;2380.80;;;;;;5030138;28;20108;-58
2022/05/31 05:33:58;;;;;;;24.83;13.15;;;461.20;2380.80;;;;;;5029716;28;20052;-58
2022/05/31 05:36:24;;;;;;;23.77;13.27;;;461.30;2380.80;;;;;;5029896;28;20420;-59
2022/05/31 05:38:50;;;;;;;25.15;13.52;;;461.20;2380.80;;;;;;5029780;28;20026;-57
2022/05/31 05:41:17;;;;;;;23.92;13.80;;;461.00;2380.80;;;;;;5029744;28;20028;-56
2022/05/31 05:43:43;;;;;;;23.25;12.05;;;461.10;2380.80;;;;;;5020678;28;20037;-58
2022/05/31 05:46:13;;;;;;;26.17;15.27;;;461.10;2380.80;;;;;;5023180;28;20032;-60
2022/05/31 05:48:40;;;;;;;24.77;14.23;;;461.10;2380.80;;;;;;5016431;28;20365;-56
2022/05/31 05:51:22;;;;;;;23.30;12.35;;;460.90;2380.80;;;;;;5013995;28;20361;-57
2022/05/31 05:53:49;;;;;;;25.08;13.55;;;461.10;2380.80;;;;;;5013772;28;20033;-57
2022/05/31 05:56:15;;;;;;;22.52;12.10;;;461.40;2380.80;;;;;;5013807;28;20026;-58
2022/05/31 05:58:42;;;;;;;25.50;13.60;;;461.70;2380.80;;;;;;5013974;28;20022;-57
2022/05/31 06:01:32;;;;;;;25.85;13.15;;;461.60;2380.80;;;;;;5013687;28;20029;-56
2022/05/31 06:04:00;;;;;;;21.35;12.23;;;461.60;2380.80;;;;;;5013701;28;20026;-57
2022/05/31 06:06:30;;;;;;;25.85;13.50;;;461.70;2380.80;;;;;;5013579;28;20061;-58
2022/05/31 06:09:00;;;;;;;25.83;13.48;;;461.60;2380.80;;;;;;5013372;28;20034;-57
2022/05/31 06:11:32;;;;;;;23.70;12.77;;;461.50;2380.80;;;;;;5013574;28;20396;-57
2022/05/31 06:14:13;;;;;;;20.63;11.98;;;461.50;2380.80;;;;;;5013396;28;20112;-58
2022/05/31 06:16:43;;;;;;;25.45;13.43;;;461.60;2380.80;;;;;;5013324;28;20026;-56
2022/05/31 06:19:17;;;;;;;26.83;15.63;;;461.70;2380.80;;;;;;5013368;28;20368;-56
2022/05/31 06:21:45;;;;;;;23.77;12.75;;;461.40;2380.80;;;;;;5013558;28;20404;-56
2022/05/31 06:24:11;;;;;;;27.15;14.35;;;461.70;2380.80;;;;;;5013296;28;20025;-56
2022/05/31 06:26:37;;;;;;;19.67;12.73;;;486.80;2380.80;;;;;;5013023;28;20081;-58
2022/05/31 06:29:03;;;;;;;22.25;12.27;;;538.10;2406.40;;;;;;5013346;28;20468;-56
2022/05/31 06:31:29;;;;;;;21.20;12.98;;;563.60;2432.00;;;;;;5013343;28;20026;-56
2022/05/31 06:33:55;;;;;;;23.27;13.68;;;538.20;2406.40;;;;;;5013248;28;20069;-56
2022/05/31 06:36:21;;;;;;;19.90;12.63;;;538.10;2406.40;;;;;;5013175;28;20053;-57
2022/05/31 06:38:46;;;;;;;22.13;12.98;;;512.60;2380.80;;;;;;5012897;28;20084;-56
2022/05/31 06:41:13;;;;;;;19.48;12.73;;;487.30;2380.80;;;;;;5013009;28;20030;-56
2022/05/31 06:43:39;;;;;;;19.75;11.82;;;486.60;2380.80;;;;;;5012982;28;20487;-56
2022/05/31 06:46:07;;;;;;;20.10;13.18;;;461.70;2380.80;;;;;;5012834;28;20463;-57
2022/05/31 06:48:33;;;;;;;20.80;12.85;;;461.50;2380.80;;;;;;5013060;28;20444;-57
2022/05/31 06:51:04;;;;;;;20.55;11.95;;;461.40;2380.80;;;;;;5012847;28;20029;-56
2022/05/31 06:59:08;;;;;;;20.67;12.57;;;461.60;2380.80;;;;;;4989461;28;20089;-59
2022/05/31 07:01:39;;;;;;;21.75;12.95;;;461.50;2380.80;;;;;;5018283;28;20432;-60
2022/05/31 07:04:05;;;;;;;24.95;13.18;;;461.50;2380.80;;;;;;5022282;28;20622;-55
2022/05/31 07:06:31;;;;;;;20.27;13.15;;;461.70;2380.80;;;;;;5029546;28;20116;-56
2022/05/31 07:08:57;;;;;;;25.33;13.23;;;461.70;2380.80;;;;;;5032157;28;20021;-56
2022/05/31 07:11:23;;;;;;;22.35;12.48;;;461.60;2380.80;;;;;;5032397;28;20035;-56
2022/05/31 07:13:49;;;;;;;23.65;12.52;;;461.70;2380.80;;;;;;5031942;28;20029;-56
2022/05/31 07:16:16;;;;;;;19.95;10.88;;;461.70;2380.80;;;;;;5032547;28;20482;-56
2022/05/31 07:18:42;;;;;;;21.58;11.10;;;461.50;2380.80;;;;;;5032367;28;20025;-61
2022/05/31 07:21:08;;;;;;;16.58;10.82;;;461.60;2380.80;;;;;;5032071;28;20086;-59
2022/05/31 07:23:34;;;;;;;19.83;11.30;;;461.70;2380.80;;;;;;5031976;28;20073;-56
2022/05/31 07:26:00;;;;;;;16.25;10.65;;;461.70;2380.80;;;;;;5031913;28;20625;-56
2022/05/31 07:28:28;;;;;;;23.60;12.95;;;461.60;2380.80;;;;;;5031939;28;20391;-56
2022/05/31 07:30:55;;;;;;;20.55;11.30;;;461.50;2380.80;;;;;;5032241;28;20040;-56
2022/05/31 07:33:21;;;;;;;21.65;11.93;;;461.40;2380.80;;;;;;5032128;28;20398;-56
2022/05/31 07:35:49;;;;;;;19.95;12.90;;;461.50;2380.80;;;;;;5031645;28;20490;-56
2022/05/31 07:38:15;;;;;;;21.60;12.93;;;461.50;2380.80;;;;;;5031550;28;20124;-57
2022/05/31 07:40:43;;;;;;;23.08;12.73;;;461.60;2380.80;;;;;;5031737;28;20022;-57
2022/05/31 07:43:08;;;;;;;24.33;13.43;;;486.50;2380.80;;;;;;5031372;28;20048;-57
2022/05/31 07:45:34;;;;;;;18.58;12.52;;;486.50;2380.80;;;;;;5031915;28;20444;-56
2022/05/31 07:48:00;;;;;;;20.70;11.57;;;486.50;2380.80;;;;;;5031761;28;20128;-57
2022/05/31 07:50:26;;;;;;;19.90;11.93;;;486.40;2380.80;;;;;;5031568;28;20024;-57
2022/05/31 07:52:51;;;;;;;21.67;12.52;;;461.60;2380.80;;;;;;5031693;28;20034;-57
2022/05/31 07:55:17;;;;;;;21.02;11.63;;;461.50;2380.80;;;;;;5031576;28;20032;-56
2022/05/31 08:00:28;;;;;;;23.83;12.18;;;461.40;2380.80;;;;;;5031631;28;20439;-56
2022/05/31 08:02:53;;;;;;;24.77;13.43;;;461.40;2380.80;;;;;;5031584;28;20435;-56
2022/05/31 08:05:19;;;;;;;26.17;13.38;;;461.40;2380.80;;;;;;5030730;28;20022;-58
2022/05/31 08:07:45;;;;;;;22.40;12.57;;;461.30;2380.80;;;;;;5031098;28;20037;-57
2022/05/31 08:10:11;;;;;;;24.90;13.25;;;461.30;2380.80;;;;;;5031069;28;20032;-58
2022/05/31 08:12:37;;;;;;;24.10;12.75;;;461.40;2380.80;;;;;;5031070;28;20076;-56
2022/05/31 08:15:04;;;;;;;23.08;11.77;;;461.50;2380.80;;;;;;5031541;28;20029;-55
2022/05/31 08:17:30;;;;;;;19.75;11.50;;;461.40;2380.80;;;;;;5031393;28;20443;-56
2022/05/31 08:19:56;;;;;;;24.08;12.00;;;461.30;2380.80;;;;;;5030772;28;20380;-57
2022/05/31 08:22:22;;;;;;;26.10;14.23;;;461.10;2380.80;;;;;;5030830;28;20033;-55
2022/05/31 08:24:47;;;;;;;24.17;12.93;;;461.10;2380.80;;;;;;5030698;28;20033;-57
2022/05/31 08:27:13;;;;;;;21.50;12.57;;;461.10;2380.80;;;;;;5030826;28;20049;-56
2022/05/31 08:29:40;;;;;;;20.50;11.50;;;460.90;2380.80;;;;;;5030715;28;20028;-59
2022/05/31 08:32:06;;;;;;;21.65;10.27;;;460.80;2380.80;;;;;;5021699;28;20083;-56
2022/05/31 08:34:32;;;;;;;15.25;9.40;;;436.10;2355.20;;;;;;5011059;28;20025;-55
2022/05/31 08:36:58;;;;;;;15.48;9.93;;;460.90;2380.80;;;;;;5011002;28;20113;-57
2022/05/31 08:39:24;;;;;;;13.82;8.02;;;461.10;2380.80;;;;;;5011085;28;20108;-57
2022/05/31 08:42:04;;;;;;;15.88;9.27;;;461.10;2380.80;;;;;;5010876;28;20025;-57
2022/05/31 08:44:39;;;;;;;19.48;10.88;;;461.00;2380.80;;;;;;5011130;28;20030;-56
2022/05/31 08:47:20;;;;;;;20.38;10.63;;;460.80;2380.80;;;;;;5010655;28;20029;-56
2022/05/31 08:53:05;;;;;;;15.23;8.67;;;436.00;2355.20;;;;;;5010848;28;20075;-58
2022/05/31 08:58:30;;;;;;;15.40;10.13;;;435.90;2355.20;;;;;;5010904;28;20041;-57
2022/05/31 09:00:57;;;;;;;17.90;9.35;;;435.90;2355.20;;;;;;5010531;28;20030;-56
2022/05/31 09:03:30;;;;;;;14.73;7.53;;;435.80;2355.20;;;;;;5010537;28;20069;-58
2022/05/31 09:05:58;;;;;;;11.60;7.03;;;435.80;2355.20;;;;;;5010607;28;20420;-58
2022/05/31 09:08:29;;;;;;;12.52;6.82;;;435.80;2355.20;;;;;;5010522;28;20376;-56
2022/05/31 09:11:08;;;;;;;9.90;5.25;;;435.90;2355.20;;;;;;5010352;28;20108;-56
2022/05/31 09:13:51;;;;;;;10.40;5.05;;;436.00;2355.20;;;;;;5010558;28;20022;-57
2022/05/31 09:16:48;;;;;;;7.50;5.28;;;460.80;2380.80;;;;;;5010529;28;20361;-56
2022/05/31 09:20:11;;;;;;;8.02;4.18;;;460.90;2380.80;;;;;;5010512;28;20026;-56
2022/05/31 09:22:43;;;;;;;6.22;3.55;;;461.10;2380.80;;;;;;4911704;29;20067;-56
2022/05/31 09:25:09;;;;;;;5.60;3.83;;;461.10;2380.80;;;;;;4908873;29;20036;-56
2022/05/31 09:27:44;;;;;;;6.45;4.38;;;461.20;2380.80;;;;;;4893098;29;20051;-56
2022/05/31 09:30:18;;;;;;;7.68;4.75;;;461.30;2380.80;;;;;;4892902;29;20036;-56
2022/05/31 09:33:17;;;;;;;9.95;5.45;;;461.60;2380.80;;;;;;4892963;29;20033;-56
2022/05/31 09:35:59;;;;;;;9.50;4.72;;;461.70;2380.80;;;;;;4892921;29;20036;-56
2022/05/31 09:38:49;;;;;;;8.63;4.75;;;486.60;2380.80;;;;;;4892779;29;20036;-56
2022/05/31 09:41:17;;;;;;;8.00;4.63;;;487.00;2380.80;;;;;;4892521;29;20024;-57
2022/05/31 09:43:55;;;;;;;12.00;7.57;;;487.30;2380.80;;;;;;4892818;29;20037;-56
2022/05/31 09:46:45;;;;;;;14.55;8.85;;;512.00;2380.80;;;;;;4892817;29;20039;-56
2022/05/31 09:49:32;;;;;;;14.35;9.20;;;512.00;2380.80;;;;;;4892824;29;20039;-56
2022/05/31 09:51:58;;;;;;;14.55;8.00;;;487.30;2380.80;;;;;;4892505;29;20119;-56
2022/05/31 09:57:21;;;;;;;15.60;8.75;;;487.10;2380.80;;;;;;4978703;28;20162;-56
2022/05/31 09:59:50;;;;;;;13.45;8.82;;;487.10;2380.80;;;;;;4990244;28;20473;-57
2022/05/31 10:02:19;;;;;;;10.75;5.97;;;487.30;2380.80;;;;;;4990532;28;20121;-56
2022/05/31 10:04:46;;;;;;;11.57;6.13;;;512.20;2380.80;;;;;;4990638;28;20338;-56
2022/05/31 10:07:12;;;;;;;11.80;7.47;;;512.50;2380.80;;;;;;4990611;28;20038;-56
2022/05/31 10:09:41;;;;;;;12.98;7.28;;;512.40;2380.80;;;;;;4990340;28;20023;-56
2022/05/31 10:12:26;;;;;;;11.23;7.25;;;512.80;2380.80;;;;;;4990019;28;20030;-56
2022/05/31 10:14:54;;;;;;;10.57;6.75;;;512.40;2380.80;;;;;;4990487;28;20027;-58
2022/05/31 10:17:43;;;;;;;11.18;7.35;;;512.10;2380.80;;;;;;4990140;28;20034;-58
2022/05/31 10:20:18;;;;;;;9.52;6.43;;;512.60;2380.80;;;;;;4990180;28;20109;-56
2022/05/31 10:23:01;;;;;;;12.90;8.18;;;537.90;2406.40;;;;;;4989928;28;20038;-60
2022/05/31 10:25:32;;;;;;;8.02;5.47;;;538.20;2406.40;;;;;;4995000;28;20473;-56
2022/05/31 10:28:05;;;;;;;12.20;6.43;;;538.40;2406.40;;;;;;5009971;28;20381;-57
2022/05/31 10:30:31;;;;;;;9.18;5.60;;;563.30;2432.00;;;;;;5013343;28;20037;-55
2022/05/31 10:33:03;;;;;;;10.32;5.60;;;538.40;2406.40;;;;;;5013104;28;20069;-57
2022/05/31 10:35:31;;;;;;;9.30;5.88;;;538.40;2406.40;;;;;;5013053;28;20018;-56
2022/05/31 10:37:57;;;;;;;9.20;6.78;;;538.50;2406.40;;;;;;5012955;28;20018;-56
2022/05/31 10:40:47;;;;;;;11.73;6.03;;;538.00;2406.40;;;;;;5013194;28;21000;-56
2022/05/31 10:43:37;;;;;;;10.70;6.28;;;537.80;2406.40;;;;;;5013001;28;20033;-56
2022/05/31 10:46:13;;;;;;;8.18;5.97;;;538.00;2406.40;;;;;;5013149;28;20508;-56
2022/05/31 10:48:48;;;;;;;8.90;6.32;;;537.90;2406.40;;;;;;5012727;28;20045;-56
2022/05/31 10:51:23;;;;;;;8.35;6.57;;;538.00;2406.40;;;;;;5012834;28;20145;-57
2022/05/31 10:54:12;;;;;;;8.80;5.80;;;538.10;2406.40;;;;;;5012864;28;20059;-56
2022/05/31 10:56:49;;;;;;;9.48;6.05;;;538.10;2406.40;;;;;;4914106;29;20432;-56
2022/05/31 10:59:18;;;;;;;9.55;5.50;;;538.30;2406.40;;;;;;4914088;29;20036;-57
2022/05/31 11:02:20;;;;;;;9.50;6.40;;;563.30;2432.00;;;;;;4914180;29;20424;-56
2022/05/31 11:05:24;;;;;;;8.05;5.55;;;538.50;2406.40;;;;;;4914056;29;20056;-56
2022/05/31 11:14:22;;;;;;;12.02;6.32;;;563.30;2432.00;;;;;;4858259;29;20104;-56
2022/05/31 11:16:51;;;;;;;6.72;4.20;;;563.80;2432.00;;;;;;4857394;29;20034;-56
2022/05/31 11:20:00;;;;;;;7.43;4.20;;;563.90;2432.00;;;;;;4857570;29;20036;-56
2022/05/31 11:22:28;;;;;;;8.60;5.00;;;564.00;2432.00;;;;;;4857292;29;20052;-56
2022/05/31 11:24:57;;;;;;;7.45;4.78;;;588.90;2432.00;;;;;;4857382;29;20052;-55
2022/05/31 11:27:44;;;;;;;6.95;4.50;;;588.90;2432.00;;;;;;4857580;29;20073;-56
2022/05/31 11:30:23;;;;;;;7.70;5.00;;;589.50;2432.00;;;;;;4857498;29;20245;-56
2022/05/31 11:33:07;;;;;;;7.70;6.03;;;589.40;2432.00;;;;;;4862019;29;20154;-57
2022/05/31 11:35:43;;;;;;;11.90;4.45;;;589.70;2432.00;;;;;;4894747;29;20028;-56
2022/05/31 11:38:25;;;;;;;7.30;4.30;;;589.70;2432.00;;;;;;4894378;29;20033;-58
2022/05/31 11:40:56;;;;;;;8.07;4.72;;;614.50;2432.00;;;;;;4893515;29;20551;-56
2022/05/31 11:43:24;;;;;;;11.63;8.18;;;589.60;2432.00;;;;;;4912028;29;20482;-59
2022/05/31 11:46:04;;;;;;;9.10;5.25;;;589.40;2432.00;;;;;;4932322;29;20032;-58
2022/05/31 11:48:46;;;;;;;7.55;4.95;;;589.60;2432.00;;;;;;4932422;29;20083;-59
2022/05/31 11:51:17;;;;;;;6.28;3.72;;;589.60;2432.00;;;;;;4932090;29;20023;-57
2022/05/31 11:54:22;;;;;;;7.18;4.78;;;589.60;2432.00;;;;;;4931960;29;20106;-58
2022/05/31 11:56:48;;;;;;;8.00;4.05;;;589.70;2432.00;;;;;;4918802;29;20043;-58
2022/05/31 11:59:28;;;;;;;8.20;3.53;;;589.70;2432.00;;;;;;4954486;28;20039;-56
2022/05/31 12:02:03;;;;;;;6.00;3.67;;;589.70;2432.00;;;;;;4992091;28;20049;-58
2022/05/31 12:04:51;;;;;;;10.93;5.10;;;614.50;2432.00;;;;;;4992031;28;20051;-56
2022/05/31 12:07:45;;;;;;;5.80;4.20;;;614.50;2432.00;;;;;;4991556;28;20030;-57
2022/05/31 12:10:34;;;;;;;4.80;2.45;;;614.60;2432.00;;;;;;4991838;28;20030;-57
2022/05/31 12:13:08;;;;;;;6.63;4.03;;;614.40;2432.00;;;;;;4991946;28;20034;-58
2022/05/31 12:15:38;;;;;;;4.80;2.80;;;614.50;2432.00;;;;;;4992199;28;20018;-57
2022/05/31 12:18:24;;;;;;;3.65;2.50;;;614.60;2432.00;;;;;;4991751;28;20105;-57
2022/05/31 12:21:12;;;;;;;9.20;3.70;;;614.80;2432.00;;;;;;4991621;28;20030;-56
2022/05/31 12:24:01;;;;;;;4.82;2.50;;;614.90;2432.00;;;;;;4991293;28;20385;-57
2022/05/31 12:26:40;;;;;;;6.03;3.35;;;615.00;2432.00;;;;;;5004333;28;20050;-56
2022/05/31 12:29:05;;;;;;;5.95;3.28;;;615.10;2432.00;;;;;;5010980;28;20362;-56
2022/05/31 12:31:33;;;;;;;4.03;2.83;;;615.00;2432.00;;;;;;5011188;28;20032;-56
2022/05/31 12:34:33;;;;;;;5.95;3.92;;;615.10;2432.00;;;;;;5010885;28;20022;-56
2022/05/31 12:37:09;;;;;;;6.15;2.72;;;615.30;2432.00;;;;;;5010092;28;20037;-57
2022/05/31 12:39:37;;;;;;;3.72;2.28;;;640.20;2432.00;;;;;;5010761;28;20424;-56
2022/05/31 12:42:14;;;;;;;5.53;2.53;;;640.00;2432.00;;;;;;5010845;28;20481;-57
2022/05/31 12:44:48;;;;;;;9.32;2.53;;;640.20;2432.00;;;;;;5010798;28;20108;-56
2022/05/31 12:47:19;;;;;;;4.10;2.03;;;640.20;2432.00;;;;;;5010681;28;20068;-56
2022/05/31 12:50:02;;;;;;;3.30;2.00;;;615.30;2432.00;;;;;;5010477;28;20418;-56
2022/05/31 12:55:23;;;;;;;3.40;2.03;;;640.00;2252.80;;;;;;5010551;28;20034;-56